Port Imperial Manhattan — WBP3384 — position and weather

sailwx.info

Track history (hours):
 
Tides and Currents Weather Stations Pressure Air Temp Water Temp Dewpoint Dewpoint Depression Visibility Wind Speed Wind Dir Waves Ship Positions

Port Imperial Manhattan

Owner: PORT IMPERIAL FERRY CORP, WEEHAWKEN, NJ. More information available from US FCC via Universal Licensing System and Coast Guard Vessel Documentation Center.

Last reported at 2017-Oct-21 23:39 UTC. Time now 2017-Oct-22 13:35 UTC.
Position N 40°47' W 074°01'.

Length 30 m.

Type: Passenger vessel. MMSI: 366990540.

Date/timePositionNaut miles runAvg speedWind from/ knotsBaromVisibWave heightAir tempDewpointWater temp
2017-Oct-21 23:39N 40°47' W 074°01'1 3.7
2017-Oct-21 23:30N 40°46' W 074°01'5 9.6
2017-Oct-21 23:00N 40°41' W 074°01'0 0.0
2017-Oct-21 22:30N 40°41' W 074°01'0 0.0
2017-Oct-21 21:59N 40°41' W 074°01'1 1.5
2017-Oct-21 21:30N 40°42' W 074°00'1 1.4
2017-Oct-21 21:00N 40°41' W 074°01'1 1.4
2017-Oct-21 20:30N 40°42' W 074°00'1 1.5
2017-Oct-21 20:00N 40°41' W 074°01'1 1.4
2017-Oct-21 19:30N 40°42' W 074°00'1 1.5
2017-Oct-21 19:00N 40°41' W 074°01'1 1.5
2017-Oct-21 18:30N 40°42' W 074°00'1 1.4
2017-Oct-21 18:00N 40°41' W 074°01'1 1.5
2017-Oct-21 17:30N 40°42' W 074°00'1 1.4
2017-Oct-21 17:00N 40°41' W 074°01'1 1.4
2017-Oct-21 16:29N 40°42' W 074°00'1 1.5
2017-Oct-21 16:00N 40°41' W 074°01'1 1.5
2017-Oct-21 15:30N 40°42' W 074°00'0 0.0
2017-Oct-21 15:00N 40°42' W 074°00'1 1.0
2017-Oct-21 14:30N 40°42' W 074°01'5 0.3
2017-Oct-21 01:23N 40°46' W 074°01'3 9.0
2017-Oct-21 01:00N 40°43' W 074°01'0 0.0
2017-Oct-21 00:31N 40°43' W 074°01'0 0.3
2017-Oct-21 00:01N 40°43' W 074°01'0 0.3
2017-Oct-20 23:30N 40°43' W 074°01'0 0.2
2017-Oct-20 23:00N 40°43' W 074°01'0 0.2
2017-Oct-20 22:30N 40°43' W 074°01'0 0.4
2017-Oct-20 22:00N 40°43' W 074°01'0 0.4
2017-Oct-20 21:30N 40°43' W 074°01'0 0.0
2017-Oct-20 21:00N 40°43' W 074°01'0 0.0
2017-Oct-20 20:30N 40°43' W 074°01'0 0.0
2017-Oct-20 20:00N 40°43' W 074°01'0 0.2
2017-Oct-20 19:30N 40°43' W 074°01'0 0.3
2017-Oct-20 19:00N 40°43' W 074°01'0 0.4
2017-Oct-20 18:30N 40°43' W 074°01'0 0.2
2017-Oct-20 18:01N 40°43' W 074°01'0 0.0
2017-Oct-20 17:31N 40°43' W 074°01'0 0.0
2017-Oct-20 17:00N 40°43' W 074°01'0 0.2
2017-Oct-20 16:30N 40°43' W 074°01'0 0.0
2017-Oct-20 16:00N 40°43' W 074°01'0 0.2
2017-Oct-20 15:30N 40°43' W 074°01'0 0.3
2017-Oct-20 15:01N 40°43' W 074°01'0 0.2
2017-Oct-20 14:31N 40°43' W 074°01'0 0.1
2017-Oct-20 13:30N 40°43' W 074°01'0 0.1
2017-Oct-20 13:01N 40°43' W 074°01'0 0.2
2017-Oct-20 12:30N 40°43' W 074°01'0 0.2
2017-Oct-20 12:00N 40°43' W 074°01'0 0.2
2017-Oct-20 11:30N 40°43' W 074°01'0 0.0
2017-Oct-20 11:00N 40°43' W 074°01'2 3.7
2017-Oct-20 10:30N 40°45' W 074°01'2 0.2
2017-Oct-20 01:21N 40°46' W 074°01'310.0
2017-Oct-20 01:00N 40°43' W 074°01'0 0.0
2017-Oct-20 00:30N 40°43' W 074°01'0 0.1
2017-Oct-20 00:00N 40°43' W 074°01'0 0.3
2017-Oct-19 23:30N 40°43' W 074°01'0 0.1
2017-Oct-19 23:00N 40°43' W 074°01'0 0.2
2017-Oct-19 22:30N 40°43' W 074°01'0 0.2
2017-Oct-19 22:00N 40°43' W 074°01'0 0.2
2017-Oct-19 21:30N 40°43' W 074°01'0 0.0
2017-Oct-19 21:01N 40°43' W 074°01'0 0.0
2017-Oct-19 20:30N 40°43' W 074°01'0 0.0
2017-Oct-19 20:00N 40°43' W 074°01'0 0.0
2017-Oct-19 19:30N 40°43' W 074°01'0 0.3
2017-Oct-19 19:00N 40°43' W 074°01'0 0.2
2017-Oct-19 18:30N 40°43' W 074°01'0 0.1
2017-Oct-19 18:00N 40°43' W 074°01'0 0.0
2017-Oct-19 17:31N 40°43' W 074°01'0 0.0
2017-Oct-19 17:00N 40°43' W 074°01'0 0.3
2017-Oct-19 16:31N 40°43' W 074°01'0 0.3
2017-Oct-19 16:00N 40°43' W 074°01'0 0.0
2017-Oct-19 15:30N 40°43' W 074°01'0 0.2
2017-Oct-19 15:00N 40°43' W 074°01'0 0.0
2017-Oct-19 14:30N 40°43' W 074°01'0 0.2
2017-Oct-19 14:00N 40°43' W 074°01'0 0.0
2017-Oct-19 13:30N 40°43' W 074°01'0 0.5
2017-Oct-19 13:00N 40°43' W 074°01'0 0.4
2017-Oct-19 12:30N 40°43' W 074°01'0 0.4
2017-Oct-19 12:00N 40°43' W 074°01'0 0.4
2017-Oct-19 11:30N 40°43' W 074°01'0 0.0
2017-Oct-19 11:00N 40°43' W 074°01'1 1.4
2017-Oct-19 10:30N 40°43' W 074°02'3 6.5
2017-Oct-19 10:00N 40°46' W 074°01'0 0.0
2017-Oct-19 09:31N 40°46' W 074°01'0 0.0
2017-Oct-19 09:00N 40°46' W 074°01'0 0.0
2017-Oct-19 08:30N 40°46' W 074°01'0 0.0
2017-Oct-19 01:19N 40°46' W 074°01'310.8
2017-Oct-19 01:00N 40°43' W 074°01'0 0.0
2017-Oct-19 00:30N 40°43' W 074°01'0 0.0
2017-Oct-19 00:00N 40°43' W 074°01'0 0.1
2017-Oct-18 23:30N 40°43' W 074°01'0 0.0
2017-Oct-18 23:00N 40°43' W 074°01'0 0.0
2017-Oct-18 22:30N 40°43' W 074°01'0 0.1
2017-Oct-18 22:00N 40°43' W 074°01'0 0.1
2017-Oct-18 21:30N 40°43' W 074°01'0 0.1
2017-Oct-18 21:00N 40°43' W 074°01'0 0.0
2017-Oct-18 20:30N 40°43' W 074°01'0 0.0
2017-Oct-18 20:00N 40°43' W 074°01'0 0.1
2017-Oct-18 19:30N 40°43' W 074°01'0 0.2
2017-Oct-18 19:00N 40°43' W 074°01'0 0.1
2017-Oct-18 18:30N 40°43' W 074°01'0 0.1
2017-Oct-18 18:00N 40°43' W 074°01'0 0.0
2017-Oct-18 17:30N 40°43' W 074°01'0 0.1
2017-Oct-18 17:00N 40°43' W 074°01'0 0.4
2017-Oct-18 16:30N 40°43' W 074°01'0 0.4
2017-Oct-18 16:01N 40°43' W 074°01'0 0.2
2017-Oct-18 15:30N 40°43' W 074°01'0 0.3
2017-Oct-18 15:00N 40°43' W 074°01'0 0.0
2017-Oct-18 14:00N 40°43' W 074°01'0 0.0
2017-Oct-18 13:31N 40°43' W 074°01'0 0.1
2017-Oct-18 13:01N 40°43' W 074°01'0 0.1
2017-Oct-18 12:31N 40°43' W 074°01'0 0.0
2017-Oct-18 12:01N 40°43' W 074°01'0 0.0
2017-Oct-18 11:31N 40°43' W 074°01'0 0.2
2017-Oct-18 11:00N 40°43' W 074°01'0 1.0
2017-Oct-18 10:30N 40°43' W 074°02'3 6.5
2017-Oct-18 10:00N 40°46' W 074°01'2 0.2
2017-Oct-17 23:30N 40°45' W 074°01'1 2.9
2017-Oct-17 23:00N 40°43' W 074°01'1 2.5
2017-Oct-17 22:30N 40°42' W 074°00'2 4.4
2017-Oct-17 22:00N 40°44' W 074°02'1 2.1
2017-Oct-17 21:31N 40°43' W 074°01'1 2.5
2017-Oct-17 21:01N 40°42' W 074°00'2 4.3
2017-Oct-17 20:30N 40°44' W 074°02'1 2.2
2017-Oct-17 20:00N 40°43' W 074°01'1 2.2
2017-Oct-17 19:30N 40°44' W 074°02'1 2.6
2017-Oct-17 19:00N 40°43' W 074°01'1 2.5
2017-Oct-17 18:30N 40°44' W 074°02'1 2.8
2017-Oct-17 18:00N 40°43' W 074°01'4 7.2
2017-Oct-17 17:30N 40°46' W 074°01'0 0.0
2017-Oct-17 17:00N 40°46' W 074°01'0 0.0
2017-Oct-17 16:30N 40°46' W 074°01'0 0.0
2017-Oct-17 16:00N 40°46' W 074°01'0 0.0
2017-Oct-17 15:30N 40°46' W 074°01'0 0.0
2017-Oct-17 15:00N 40°46' W 074°01'0 0.0
2017-Oct-17 14:30N 40°46' W 074°01'0 0.0
2017-Oct-17 14:00N 40°46' W 074°01'0 0.0
2017-Oct-17 13:30N 40°46' W 074°01'0 0.0
2017-Oct-17 13:00N 40°46' W 074°01'0 0.0
2017-Oct-17 12:30N 40°46' W 074°01'0 0.0
2017-Oct-17 12:00N 40°46' W 074°01'0 0.0
2017-Oct-17 11:30N 40°46' W 074°01'0 0.0
2017-Oct-17 11:00N 40°46' W 074°01'0 0.0
2017-Oct-17 10:30N 40°46' W 074°01'0 0.0
2017-Oct-17 10:00N 40°46' W 074°01'0 0.0
2017-Oct-17 09:30N 40°46' W 074°01'0 0.0
2017-Oct-17 09:00N 40°46' W 074°01'0 0.0
2017-Oct-17 08:30N 40°46' W 074°01'0 0.0
2017-Oct-17 08:00N 40°46' W 074°01'0 0.0
2017-Oct-17 07:30N 40°46' W 074°01'0 0.0
2017-Oct-17 07:00N 40°46' W 074°01'0 0.0
2017-Oct-17 06:30N 40°46' W 074°01'0 0.0
2017-Oct-17 06:00N 40°46' W 074°01'0 0.0
2017-Oct-17 05:30N 40°46' W 074°01'0 0.0
2017-Oct-17 05:00N 40°46' W 074°01'0 0.0
2017-Oct-17 04:30N 40°46' W 074°01'0 0.0
2017-Oct-17 04:00N 40°46' W 074°01'0 0.0
2017-Oct-17 03:30N 40°46' W 074°01'0 0.0
2017-Oct-17 03:00N 40°46' W 074°01'0 0.0
2017-Oct-17 02:30N 40°46' W 074°01'0 0.0
2017-Oct-17 02:00N 40°46' W 074°01'0 0.0
2017-Oct-17 01:30N 40°46' W 074°01'0 0.0
2017-Oct-17 01:01N 40°46' W 074°01'0 0.0
2017-Oct-17 00:30N 40°46' W 074°01'0 0.0
2017-Oct-17 00:00N 40°46' W 074°01'0 0.0
2017-Oct-16 23:30N 40°46' W 074°01'0 0.0
2017-Oct-16 23:00N 40°46' W 074°01'0 0.0
2017-Oct-16 22:30N 40°46' W 074°01'0 0.0
2017-Oct-16 22:00N 40°46' W 074°01'0 0.0
2017-Oct-16 21:30N 40°46' W 074°01'0 0.0
2017-Oct-16 21:00N 40°46' W 074°01'0 0.0
2017-Oct-16 20:31N 40°46' W 074°01'0 0.0
2017-Oct-16 20:00N 40°46' W 074°01'0 0.0
2017-Oct-16 19:30N 40°46' W 074°01'0 0.0
2017-Oct-16 19:00N 40°46' W 074°01'0 0.0
2017-Oct-16 18:30N 40°46' W 074°01'0 0.0
2017-Oct-16 18:00N 40°46' W 074°01'0 0.0
2017-Oct-16 17:30N 40°46' W 074°01'0 0.0
2017-Oct-16 17:00N 40°46' W 074°01'0 0.0
2017-Oct-16 16:30N 40°46' W 074°01'0 0.0
2017-Oct-16 16:00N 40°46' W 074°01'0 0.0
2017-Oct-16 15:30N 40°46' W 074°01'0 0.0
2017-Oct-16 15:00N 40°46' W 074°01'0 0.0
2017-Oct-16 14:00N 40°46' W 074°01'0 0.0
2017-Oct-16 13:30N 40°46' W 074°01'0 0.1
2017-Oct-16 13:01N 40°46' W 074°01'0 0.0
2017-Oct-16 12:30N 40°46' W 074°01'0 0.0
2017-Oct-16 12:00N 40°46' W 074°01'0 0.0
2017-Oct-16 11:30N 40°46' W 074°01'0 0.0
2017-Oct-16 11:00N 40°46' W 074°01'0 0.0
2017-Oct-16 10:30N 40°46' W 074°01'1 2.4
2017-Oct-16 10:00N 40°45' W 074°01'1 0.3
2017-Oct-16 05:17N 40°46' W 074°01'0 0.0
2017-Oct-16 05:01N 40°46' W 074°01'0 0.0
2017-Oct-16 04:30N 40°46' W 074°01'0 0.0
2017-Oct-16 04:00N 40°46' W 074°01'0 0.0
2017-Oct-16 03:30N 40°46' W 074°01'0 0.0
2017-Oct-16 03:00N 40°46' W 074°01'0 0.0
2017-Oct-16 02:30N 40°46' W 074°01'0 0.0
2017-Oct-16 02:01N 40°46' W 074°01'0 0.0
2017-Oct-16 01:30N 40°46' W 074°01'0 0.0
2017-Oct-16 01:00N 40°46' W 074°01'0 0.0
2017-Oct-15 23:39N 40°46' W 074°01'0 0.2
2017-Oct-15 23:30N 40°46' W 074°01'510.2
2017-Oct-15 23:01N 40°41' W 074°01'0 0.5
2017-Oct-15 22:31N 40°41' W 074°01'0 0.0
2017-Oct-15 22:00N 40°41' W 074°01'1 1.4
2017-Oct-15 21:30N 40°42' W 074°00'1 1.5
2017-Oct-15 21:00N 40°41' W 074°01'1 1.4
2017-Oct-15 20:30N 40°42' W 074°00'1 1.4
2017-Oct-15 20:00N 40°41' W 074°01'1 1.4
2017-Oct-15 19:30N 40°42' W 074°00'1 1.5
2017-Oct-15 19:01N 40°41' W 074°01'1 1.4
2017-Oct-15 18:30N 40°42' W 074°00'1 1.5
2017-Oct-15 18:01N 40°41' W 074°01'1 1.5
2017-Oct-15 17:31N 40°42' W 074°00'1 1.4
2017-Oct-15 17:00N 40°41' W 074°01'1 1.5
2017-Oct-15 16:30N 40°42' W 074°00'1 1.4
2017-Oct-15 16:00N 40°41' W 074°01'1 1.4
2017-Oct-15 15:30N 40°42' W 074°00'0 0.0
2017-Oct-15 15:01N 40°42' W 074°00'5 5.0
2017-Oct-15 14:00N 40°47' W 074°01'0 0.0
2017-Oct-14 23:41N 40°47' W 074°01'0 1.9
2017-Oct-14 23:30N 40°46' W 074°00'510.3
2017-Oct-14 23:01N 40°41' W 074°01'0 0.0
2017-Oct-14 22:30N 40°41' W 074°01'0 0.0
2017-Oct-14 22:00N 40°41' W 074°01'1 1.4
2017-Oct-14 21:30N 40°42' W 074°00'1 1.4
2017-Oct-14 21:00N 40°41' W 074°01'1 1.5
2017-Oct-14 20:31N 40°42' W 074°00'1 1.4
2017-Oct-14 20:00N 40°41' W 074°01'1 1.5
2017-Oct-14 19:30N 40°42' W 074°00'1 1.4
2017-Oct-14 19:00N 40°41' W 074°01'1 1.5
2017-Oct-14 18:30N 40°42' W 074°00'1 1.4
2017-Oct-14 18:00N 40°41' W 074°01'1 1.4
2017-Oct-14 17:30N 40°42' W 074°00'1 1.4
2017-Oct-14 17:00N 40°41' W 074°01'1 1.4
2017-Oct-14 16:30N 40°42' W 074°00'1 1.4
2017-Oct-14 16:00N 40°41' W 074°01'1 1.4
2017-Oct-14 15:30N 40°42' W 074°00'0 0.0
2017-Oct-14 15:00N 40°42' W 074°00'1 1.4
2017-Oct-14 14:30N 40°41' W 074°01'510.7
2017-Oct-14 14:00N 40°46' W 074°00'0 0.0
2017-Oct-13 18:17N 40°46' W 074°01'0 0.1
2017-Oct-13 18:00N 40°46' W 074°01'0 0.0
2017-Oct-13 17:30N 40°46' W 074°01'0 0.0
2017-Oct-13 17:00N 40°46' W 074°01'0 0.0
2017-Oct-13 16:30N 40°46' W 074°01'0 0.0
2017-Oct-13 16:00N 40°46' W 074°01'0 0.0
2017-Oct-13 15:30N 40°46' W 074°01'0 0.0
2017-Oct-13 15:00N 40°46' W 074°01'0 0.0
2017-Oct-13 14:30N 40°46' W 074°01'0 0.0
2017-Oct-13 14:00N 40°46' W 074°01'0 0.0
2017-Oct-13 13:30N 40°46' W 074°01'0 0.0
2017-Oct-13 13:00N 40°46' W 074°01'0 0.0
2017-Oct-13 12:30N 40°46' W 074°01'0 0.0
2017-Oct-13 12:00N 40°46' W 074°01'  
Track history (hours):
 
Tides and Currents Weather Stations Pressure Air Temp Water Temp Dewpoint Dewpoint Depression Visibility Wind Speed Wind Dir Waves Ship Positions

Port Imperial Manhattan

Owner: PORT IMPERIAL FERRY CORP, WEEHAWKEN, NJ. More information available from US FCC via Universal Licensing System and Coast Guard Vessel Documentation Center.

Last reported at 2017-Oct-21 23:39 UTC. Time now 2017-Oct-22 13:35 UTC.
Position N 40°47' W 074°01'.

Length 30 m.

Type: Passenger vessel. MMSI: 366990540.

Date/timePositionNaut miles runAvg speedWind from/ knotsBaromVisibWave heightAir tempDewpointWater temp
2017-Oct-21 23:39N 40°47' W 074°01'1 3.7
2017-Oct-21 23:30N 40°46' W 074°01'5 9.6
2017-Oct-21 23:00N 40°41' W 074°01'0 0.0
2017-Oct-21 22:30N 40°41' W 074°01'0 0.0
2017-Oct-21 21:59N 40°41' W 074°01'1 1.5
2017-Oct-21 21:30N 40°42' W 074°00'1 1.4
2017-Oct-21 21:00N 40°41' W 074°01'1 1.4
2017-Oct-21 20:30N 40°42' W 074°00'1 1.5
2017-Oct-21 20:00N 40°41' W 074°01'1 1.4
2017-Oct-21 19:30N 40°42' W 074°00'1 1.5
2017-Oct-21 19:00N 40°41' W 074°01'1 1.5
2017-Oct-21 18:30N 40°42' W 074°00'1 1.4
2017-Oct-21 18:00N 40°41' W 074°01'1 1.5
2017-Oct-21 17:30N 40°42' W 074°00'1 1.4
2017-Oct-21 17:00N 40°41' W 074°01'1 1.4
2017-Oct-21 16:29N 40°42' W 074°00'1 1.5
2017-Oct-21 16:00N 40°41' W 074°01'1 1.5
2017-Oct-21 15:30N 40°42' W 074°00'0 0.0
2017-Oct-21 15:00N 40°42' W 074°00'1 1.0
2017-Oct-21 14:30N 40°42' W 074°01'5 0.3
2017-Oct-21 01:23N 40°46' W 074°01'3 9.0
2017-Oct-21 01:00N 40°43' W 074°01'0 0.0
2017-Oct-21 00:31N 40°43' W 074°01'0 0.3
2017-Oct-21 00:01N 40°43' W 074°01'0 0.3
2017-Oct-20 23:30N 40°43' W 074°01'0 0.2
2017-Oct-20 23:00N 40°43' W 074°01'0 0.2
2017-Oct-20 22:30N 40°43' W 074°01'0 0.4
2017-Oct-20 22:00N 40°43' W 074°01'0 0.4
2017-Oct-20 21:30N 40°43' W 074°01'0 0.0
2017-Oct-20 21:00N 40°43' W 074°01'0 0.0
2017-Oct-20 20:30N 40°43' W 074°01'0 0.0
2017-Oct-20 20:00N 40°43' W 074°01'0 0.2
2017-Oct-20 19:30N 40°43' W 074°01'0 0.3
2017-Oct-20 19:00N 40°43' W 074°01'0 0.4
2017-Oct-20 18:30N 40°43' W 074°01'0 0.2
2017-Oct-20 18:01N 40°43' W 074°01'0 0.0
2017-Oct-20 17:31N 40°43' W 074°01'0 0.0
2017-Oct-20 17:00N 40°43' W 074°01'0 0.2
2017-Oct-20 16:30N 40°43' W 074°01'0 0.0
2017-Oct-20 16:00N 40°43' W 074°01'0 0.2
2017-Oct-20 15:30N 40°43' W 074°01'0 0.3
2017-Oct-20 15:01N 40°43' W 074°01'0 0.2
2017-Oct-20 14:31N 40°43' W 074°01'0 0.1
2017-Oct-20 13:30N 40°43' W 074°01'0 0.1
2017-Oct-20 13:01N 40°43' W 074°01'0 0.2
2017-Oct-20 12:30N 40°43' W 074°01'0 0.2
2017-Oct-20 12:00N 40°43' W 074°01'0 0.2
2017-Oct-20 11:30N 40°43' W 074°01'0 0.0
2017-Oct-20 11:00N 40°43' W 074°01'2 3.7
2017-Oct-20 10:30N 40°45' W 074°01'2 0.2
2017-Oct-20 01:21N 40°46' W 074°01'310.0
2017-Oct-20 01:00N 40°43' W 074°01'0 0.0
2017-Oct-20 00:30N 40°43' W 074°01'0 0.1
2017-Oct-20 00:00N 40°43' W 074°01'0 0.3
2017-Oct-19 23:30N 40°43' W 074°01'0 0.1
2017-Oct-19 23:00N 40°43' W 074°01'0 0.2
2017-Oct-19 22:30N 40°43' W 074°01'0 0.2
2017-Oct-19 22:00N 40°43' W 074°01'0 0.2
2017-Oct-19 21:30N 40°43' W 074°01'0 0.0
2017-Oct-19 21:01N 40°43' W 074°01'0 0.0
2017-Oct-19 20:30N 40°43' W 074°01'0 0.0
2017-Oct-19 20:00N 40°43' W 074°01'0 0.0
2017-Oct-19 19:30N 40°43' W 074°01'0 0.3
2017-Oct-19 19:00N 40°43' W 074°01'0 0.2
2017-Oct-19 18:30N 40°43' W 074°01'0 0.1
2017-Oct-19 18:00N 40°43' W 074°01'0 0.0
2017-Oct-19 17:31N 40°43' W 074°01'0 0.0
2017-Oct-19 17:00N 40°43' W 074°01'0 0.3
2017-Oct-19 16:31N 40°43' W 074°01'0 0.3
2017-Oct-19 16:00N 40°43' W 074°01'0 0.0
2017-Oct-19 15:30N 40°43' W 074°01'0 0.2
2017-Oct-19 15:00N 40°43' W 074°01'0 0.0
2017-Oct-19 14:30N 40°43' W 074°01'0 0.2
2017-Oct-19 14:00N 40°43' W 074°01'0 0.0
2017-Oct-19 13:30N 40°43' W 074°01'0 0.5
2017-Oct-19 13:00N 40°43' W 074°01'0 0.4
2017-Oct-19 12:30N 40°43' W 074°01'0 0.4
2017-Oct-19 12:00N 40°43' W 074°01'0 0.4
2017-Oct-19 11:30N 40°43' W 074°01'0 0.0
2017-Oct-19 11:00N 40°43' W 074°01'1 1.4
2017-Oct-19 10:30N 40°43' W 074°02'3 6.5
2017-Oct-19 10:00N 40°46' W 074°01'0 0.0
2017-Oct-19 09:31N 40°46' W 074°01'0 0.0
2017-Oct-19 09:00N 40°46' W 074°01'0 0.0
2017-Oct-19 08:30N 40°46' W 074°01'0 0.0
2017-Oct-19 01:19N 40°46' W 074°01'310.8
2017-Oct-19 01:00N 40°43' W 074°01'0 0.0
2017-Oct-19 00:30N 40°43' W 074°01'0 0.0
2017-Oct-19 00:00N 40°43' W 074°01'0 0.1
2017-Oct-18 23:30N 40°43' W 074°01'0 0.0
2017-Oct-18 23:00N 40°43' W 074°01'0 0.0
2017-Oct-18 22:30N 40°43' W 074°01'0 0.1
2017-Oct-18 22:00N 40°43' W 074°01'0 0.1
2017-Oct-18 21:30N 40°43' W 074°01'0 0.1
2017-Oct-18 21:00N 40°43' W 074°01'0 0.0
2017-Oct-18 20:30N 40°43' W 074°01'0 0.0
2017-Oct-18 20:00N 40°43' W 074°01'0 0.1
2017-Oct-18 19:30N 40°43' W 074°01'0 0.2
2017-Oct-18 19:00N 40°43' W 074°01'0 0.1
2017-Oct-18 18:30N 40°43' W 074°01'0 0.1
2017-Oct-18 18:00N 40°43' W 074°01'0 0.0
2017-Oct-18 17:30N 40°43' W 074°01'0 0.1
2017-Oct-18 17:00N 40°43' W 074°01'0 0.4
2017-Oct-18 16:30N 40°43' W 074°01'0 0.4
2017-Oct-18 16:01N 40°43' W 074°01'0 0.2
2017-Oct-18 15:30N 40°43' W 074°01'0 0.3
2017-Oct-18 15:00N 40°43' W 074°01'0 0.0
2017-Oct-18 14:00N 40°43' W 074°01'0 0.0
2017-Oct-18 13:31N 40°43' W 074°01'0 0.1
2017-Oct-18 13:01N 40°43' W 074°01'0 0.1
2017-Oct-18 12:31N 40°43' W 074°01'0 0.0
2017-Oct-18 12:01N 40°43' W 074°01'0 0.0
2017-Oct-18 11:31N 40°43' W 074°01'0 0.2
2017-Oct-18 11:00N 40°43' W 074°01'0 1.0
2017-Oct-18 10:30N 40°43' W 074°02'3 6.5
2017-Oct-18 10:00N 40°46' W 074°01'2 0.2
2017-Oct-17 23:30N 40°45' W 074°01'1 2.9
2017-Oct-17 23:00N 40°43' W 074°01'1 2.5
2017-Oct-17 22:30N 40°42' W 074°00'2 4.4
2017-Oct-17 22:00N 40°44' W 074°02'1 2.1
2017-Oct-17 21:31N 40°43' W 074°01'1 2.5
2017-Oct-17 21:01N 40°42' W 074°00'2 4.3
2017-Oct-17 20:30N 40°44' W 074°02'1 2.2
2017-Oct-17 20:00N 40°43' W 074°01'1 2.2
2017-Oct-17 19:30N 40°44' W 074°02'1 2.6
2017-Oct-17 19:00N 40°43' W 074°01'1 2.5
2017-Oct-17 18:30N 40°44' W 074°02'1 2.8
2017-Oct-17 18:00N 40°43' W 074°01'4 7.2
2017-Oct-17 17:30N 40°46' W 074°01'0 0.0
2017-Oct-17 17:00N 40°46' W 074°01'0 0.0
2017-Oct-17 16:30N 40°46' W 074°01'0 0.0
2017-Oct-17 16:00N 40°46' W 074°01'0 0.0
2017-Oct-17 15:30N 40°46' W 074°01'0 0.0
2017-Oct-17 15:00N 40°46' W 074°01'0 0.0
2017-Oct-17 14:30N 40°46' W 074°01'0 0.0
2017-Oct-17 14:00N 40°46' W 074°01'0 0.0
2017-Oct-17 13:30N 40°46' W 074°01'0 0.0
2017-Oct-17 13:00N 40°46' W 074°01'0 0.0
2017-Oct-17 12:30N 40°46' W 074°01'0 0.0
2017-Oct-17 12:00N 40°46' W 074°01'0 0.0
2017-Oct-17 11:30N 40°46' W 074°01'0 0.0
2017-Oct-17 11:00N 40°46' W 074°01'0 0.0
2017-Oct-17 10:30N 40°46' W 074°01'0 0.0
2017-Oct-17 10:00N 40°46' W 074°01'0 0.0
2017-Oct-17 09:30N 40°46' W 074°01'0 0.0
2017-Oct-17 09:00N 40°46' W 074°01'0 0.0
2017-Oct-17 08:30N 40°46' W 074°01'0 0.0
2017-Oct-17 08:00N 40°46' W 074°01'0 0.0
2017-Oct-17 07:30N 40°46' W 074°01'0 0.0
2017-Oct-17 07:00N 40°46' W 074°01'0 0.0
2017-Oct-17 06:30N 40°46' W 074°01'0 0.0
2017-Oct-17 06:00N 40°46' W 074°01'0 0.0
2017-Oct-17 05:30N 40°46' W 074°01'0 0.0
2017-Oct-17 05:00N 40°46' W 074°01'0 0.0
2017-Oct-17 04:30N 40°46' W 074°01'0 0.0
2017-Oct-17 04:00N 40°46' W 074°01'0 0.0
2017-Oct-17 03:30N 40°46' W 074°01'0 0.0
2017-Oct-17 03:00N 40°46' W 074°01'0 0.0
2017-Oct-17 02:30N 40°46' W 074°01'0 0.0
2017-Oct-17 02:00N 40°46' W 074°01'0 0.0
2017-Oct-17 01:30N 40°46' W 074°01'0 0.0
2017-Oct-17 01:01N 40°46' W 074°01'0 0.0
2017-Oct-17 00:30N 40°46' W 074°01'0 0.0
2017-Oct-17 00:00N 40°46' W 074°01'0 0.0
2017-Oct-16 23:30N 40°46' W 074°01'0 0.0
2017-Oct-16 23:00N 40°46' W 074°01'0 0.0
2017-Oct-16 22:30N 40°46' W 074°01'0 0.0
2017-Oct-16 22:00N 40°46' W 074°01'0 0.0
2017-Oct-16 21:30N 40°46' W 074°01'0 0.0
2017-Oct-16 21:00N 40°46' W 074°01'0 0.0
2017-Oct-16 20:31N 40°46' W 074°01'0 0.0
2017-Oct-16 20:00N 40°46' W 074°01'0 0.0
2017-Oct-16 19:30N 40°46' W 074°01'0 0.0
2017-Oct-16 19:00N 40°46' W 074°01'0 0.0
2017-Oct-16 18:30N 40°46' W 074°01'0 0.0
2017-Oct-16 18:00N 40°46' W 074°01'0 0.0
2017-Oct-16 17:30N 40°46' W 074°01'0 0.0
2017-Oct-16 17:00N 40°46' W 074°01'0 0.0
2017-Oct-16 16:30N 40°46' W 074°01'0 0.0
2017-Oct-16 16:00N 40°46' W 074°01'0 0.0
2017-Oct-16 15:30N 40°46' W 074°01'0 0.0
2017-Oct-16 15:00N 40°46' W 074°01'0 0.0
2017-Oct-16 14:00N 40°46' W 074°01'0 0.0
2017-Oct-16 13:30N 40°46' W 074°01'0 0.1
2017-Oct-16 13:01N 40°46' W 074°01'0 0.0
2017-Oct-16 12:30N 40°46' W 074°01'0 0.0
2017-Oct-16 12:00N 40°46' W 074°01'0 0.0
2017-Oct-16 11:30N 40°46' W 074°01'0 0.0
2017-Oct-16 11:00N 40°46' W 074°01'0 0.0
2017-Oct-16 10:30N 40°46' W 074°01'1 2.4
2017-Oct-16 10:00N 40°45' W 074°01'1 0.3
2017-Oct-16 05:17N 40°46' W 074°01'0 0.0
2017-Oct-16 05:01N 40°46' W 074°01'0 0.0
2017-Oct-16 04:30N 40°46' W 074°01'0 0.0
2017-Oct-16 04:00N 40°46' W 074°01'0 0.0
2017-Oct-16 03:30N 40°46' W 074°01'0 0.0
2017-Oct-16 03:00N 40°46' W 074°01'0 0.0
2017-Oct-16 02:30N 40°46' W 074°01'0 0.0
2017-Oct-16 02:01N 40°46' W 074°01'0 0.0
2017-Oct-16 01:30N 40°46' W 074°01'0 0.0
2017-Oct-16 01:00N 40°46' W 074°01'0 0.0
2017-Oct-15 23:39N 40°46' W 074°01'0 0.2
2017-Oct-15 23:30N 40°46' W 074°01'510.2
2017-Oct-15 23:01N 40°41' W 074°01'0 0.5
2017-Oct-15 22:31N 40°41' W 074°01'0 0.0
2017-Oct-15 22:00N 40°41' W 074°01'1 1.4
2017-Oct-15 21:30N 40°42' W 074°00'1 1.5
2017-Oct-15 21:00N 40°41' W 074°01'1 1.4
2017-Oct-15 20:30N 40°42' W 074°00'1 1.4
2017-Oct-15 20:00N 40°41' W 074°01'1 1.4
2017-Oct-15 19:30N 40°42' W 074°00'1 1.5
2017-Oct-15 19:01N 40°41' W 074°01'1 1.4
2017-Oct-15 18:30N 40°42' W 074°00'1 1.5
2017-Oct-15 18:01N 40°41' W 074°01'1 1.5
2017-Oct-15 17:31N 40°42' W 074°00'1 1.4
2017-Oct-15 17:00N 40°41' W 074°01'1 1.5
2017-Oct-15 16:30N 40°42' W 074°00'1 1.4
2017-Oct-15 16:00N 40°41' W 074°01'1 1.4
2017-Oct-15 15:30N 40°42' W 074°00'0 0.0
2017-Oct-15 15:01N 40°42' W 074°00'5 5.0
2017-Oct-15 14:00N 40°47' W 074°01'0 0.0
2017-Oct-14 23:41N 40°47' W 074°01'0 1.9
2017-Oct-14 23:30N 40°46' W 074°00'510.3
2017-Oct-14 23:01N 40°41' W 074°01'0 0.0
2017-Oct-14 22:30N 40°41' W 074°01'0 0.0
2017-Oct-14 22:00N 40°41' W 074°01'1 1.4
2017-Oct-14 21:30N 40°42' W 074°00'1 1.4
2017-Oct-14 21:00N 40°41' W 074°01'1 1.5
2017-Oct-14 20:31N 40°42' W 074°00'1 1.4
2017-Oct-14 20:00N 40°41' W 074°01'1 1.5
2017-Oct-14 19:30N 40°42' W 074°00'1 1.4
2017-Oct-14 19:00N 40°41' W 074°01'1 1.5
2017-Oct-14 18:30N 40°42' W 074°00'1 1.4
2017-Oct-14 18:00N 40°41' W 074°01'1 1.4
2017-Oct-14 17:30N 40°42' W 074°00'1 1.4
2017-Oct-14 17:00N 40°41' W 074°01'1 1.4
2017-Oct-14 16:30N 40°42' W 074°00'1 1.4
2017-Oct-14 16:00N 40°41' W 074°01'1 1.4
2017-Oct-14 15:30N 40°42' W 074°00'0 0.0
2017-Oct-14 15:00N 40°42' W 074°00'1 1.4
2017-Oct-14 14:30N 40°41' W 074°01'510.7
2017-Oct-14 14:00N 40°46' W 074°00'0 0.0
2017-Oct-13 18:17N 40°46' W 074°01'0 0.1
2017-Oct-13 18:00N 40°46' W 074°01'0 0.0
2017-Oct-13 17:30N 40°46' W 074°01'0 0.0
2017-Oct-13 17:00N 40°46' W 074°01'0 0.0
2017-Oct-13 16:30N 40°46' W 074°01'0 0.0
2017-Oct-13 16:00N 40°46' W 074°01'0 0.0
2017-Oct-13 15:30N 40°46' W 074°01'0 0.0
2017-Oct-13 15:00N 40°46' W 074°01'0 0.0
2017-Oct-13 14:30N 40°46' W 074°01'0 0.0
2017-Oct-13 14:00N 40°46' W 074°01'0 0.0
2017-Oct-13 13:30N 40°46' W 074°01'0 0.0
2017-Oct-13 13:00N 40°46' W 074°01'0 0.0
2017-Oct-13 12:30N 40°46' W 074°01'0 0.0
2017-Oct-13 12:00N 40°46' W 074°01'  

Dump ship's entire track history